Time;durP1;ratioP1;P1;durP2;ratioP2;P2;SDS_P1;SDS_P2;PMS_P1;PMS_P2;Temp;Humidity;BMP_temperature;BMP_pressure;BME280_temperature;BME280_humidity;BME280_pressure;Samples;Min_cycle;Max_cycle;Signal;HPM_P1;HPM_P2
2022/08/30 00:03:26;;;;;;;1.10;1.00;;;19.50;68.20;;;;;;5026316;28;20045;-65
2022/08/30 00:05:53;;;;;;;1.08;0.98;;;19.50;68.50;;;;;;5013692;28;20478;-65
2022/08/30 00:08:19;;;;;;;1.80;0.85;;;19.40;68.50;;;;;;5034272;28;20072;-65
2022/08/30 00:10:45;;;;;;;1.30;1.00;;;19.40;68.70;;;;;;5025734;28;20171;-65
2022/08/30 00:13:13;;;;;;;0.70;0.70;;;19.40;68.90;;;;;;5027931;28;20185;-65
2022/08/30 00:15:40;;;;;;;1.75;1.20;;;19.40;69.00;;;;;;5009739;28;20312;-65
2022/08/30 00:18:07;;;;;;;3.13;1.33;;;19.40;69.00;;;;;;5027494;28;20089;-65
2022/08/30 00:20:34;;;;;;;1.30;1.20;;;19.40;69.20;;;;;;5026010;28;20140;-65
2022/08/30 00:22:59;;;;;;;3.08;1.20;;;19.30;69.30;;;;;;5027352;28;20026;-65
2022/08/30 00:25:25;;;;;;;1.02;0.77;;;19.30;69.30;;;;;;5009219;28;20463;-65
2022/08/30 00:27:51;;;;;;;1.67;1.35;;;19.30;69.30;;;;;;5027592;28;20037;-65
2022/08/30 00:30:18;;;;;;;1.52;1.33;;;19.30;69.40;;;;;;5040227;28;20400;-65
2022/08/30 00:32:44;;;;;;;1.35;1.25;;;19.20;69.40;;;;;;5027589;28;20035;-64
2022/08/30 00:35:12;;;;;;;2.00;1.00;;;19.20;69.40;;;;;;5027338;28;20038;-65
2022/08/30 00:37:38;;;;;;;2.35;1.50;;;19.20;69.60;;;;;;5011635;28;20025;-65
2022/08/30 00:40:04;;;;;;;2.85;1.10;;;19.20;69.70;;;;;;5009385;28;20036;-65
2022/08/30 00:42:31;;;;;;;1.50;1.17;;;19.20;69.70;;;;;;5040424;28;20215;-65
2022/08/30 00:44:57;;;;;;;1.95;1.23;;;19.10;69.80;;;;;;5029821;28;20524;-65
2022/08/30 00:47:23;;;;;;;2.33;1.02;;;19.10;70.00;;;;;;5024168;28;20059;-64
2022/08/30 00:49:52;;;;;;;3.15;1.00;;;19.10;70.10;;;;;;5031300;28;20037;-65
2022/08/30 00:52:21;;;;;;;0.63;0.63;;;19.10;70.10;;;;;;5030054;28;20057;-65
2022/08/30 00:54:49;;;;;;;2.03;1.40;;;19.10;70.10;;;;;;5013014;28;20111;-65
2022/08/30 00:57:15;;;;;;;1.13;1.02;;;19.10;70.20;;;;;;5012448;28;20146;-64
2022/08/30 00:59:45;;;;;;;1.95;1.08;;;19.10;70.20;;;;;;5029503;28;20029;-65
2022/08/30 01:02:12;;;;;;;1.65;1.00;;;19.10;70.30;;;;;;5028796;28;20019;-64
2022/08/30 01:04:39;;;;;;;1.92;1.25;;;19.10;70.30;;;;;;5010728;28;20112;-65
2022/08/30 01:07:07;;;;;;;2.70;1.38;;;19.10;70.30;;;;;;5029987;28;20040;-65
2022/08/30 01:09:34;;;;;;;0.88;0.80;;;19.10;70.40;;;;;;5030479;28;20056;-65
2022/08/30 01:12:00;;;;;;;1.50;1.40;;;19.10;70.20;;;;;;5012465;28;20126;-65
2022/08/30 01:14:26;;;;;;;1.15;1.05;;;19.10;70.30;;;;;;5030785;28;20026;-65
2022/08/30 01:16:55;;;;;;;1.85;1.17;;;19.10;70.40;;;;;;5012331;28;20044;-65
2022/08/30 01:19:39;;;;;;;1.27;1.10;;;19.10;70.50;;;;;;5036268;28;20064;-65
2022/08/30 01:22:16;;;;;;;1.23;0.77;;;19.10;70.50;;;;;;5014656;28;20061;-65
2022/08/30 01:24:45;;;;;;;2.15;1.63;;;19.00;70.50;;;;;;5035015;28;20021;-65
2022/08/30 01:27:10;;;;;;;1.30;1.13;;;19.00;70.60;;;;;;5022894;28;20057;-65
2022/08/30 01:29:36;;;;;;;2.10;0.80;;;19.00;70.60;;;;;;5017716;28;20056;-65
2022/08/30 01:32:04;;;;;;;1.40;1.05;;;19.00;70.80;;;;;;5034877;28;20025;-64
2022/08/30 01:34:30;;;;;;;1.48;1.30;;;18.90;70.80;;;;;;5012443;28;20396;-66
2022/08/30 01:36:56;;;;;;;2.53;0.95;;;18.90;70.90;;;;;;4997351;28;20026;-65
2022/08/30 01:39:21;;;;;;;1.13;1.00;;;18.90;71.10;;;;;;5012111;28;20167;-65
2022/08/30 01:41:47;;;;;;;1.77;1.13;;;18.90;71.00;;;;;;5003191;28;20537;-65
2022/08/30 01:44:14;;;;;;;1.35;1.05;;;18.90;71.00;;;;;;4995408;28;20030;-65
2022/08/30 01:46:44;;;;;;;1.95;1.00;;;18.90;71.10;;;;;;5039690;28;20393;-65
2022/08/30 01:49:13;;;;;;;1.80;1.60;;;18.90;71.20;;;;;;5029987;28;20100;-65
2022/08/30 01:51:39;;;;;;;1.60;1.50;;;18.90;71.10;;;;;;5029402;28;20025;-65
2022/08/30 01:54:05;;;;;;;1.00;0.90;;;18.90;71.80;;;;;;4995247;28;20091;-65
2022/08/30 01:56:31;;;;;;;2.13;1.20;;;18.90;71.20;;;;;;5029017;28;20044;-65
2022/08/30 01:58:57;;;;;;;1.48;1.38;;;18.90;71.10;;;;;;5011970;28;20025;-65
2022/08/30 02:01:25;;;;;;;1.48;1.02;;;18.90;71.00;;;;;;5029560;28;20029;-65
2022/08/30 02:03:54;;;;;;;1.30;1.20;;;18.90;71.10;;;;;;5037951;28;20026;-65
2022/08/30 02:06:20;;;;;;;2.15;1.50;;;18.90;71.20;;;;;;5011338;28;20052;-65
2022/08/30 02:08:48;;;;;;;1.25;1.15;;;18.80;71.30;;;;;;5014007;28;20024;-65
2022/08/30 02:11:15;;;;;;;1.10;1.00;;;18.80;71.30;;;;;;5029034;28;20231;-65
2022/08/30 02:13:41;;;;;;;1.45;1.10;;;18.80;71.30;;;;;;5011666;28;20026;-65
2022/08/30 02:16:09;;;;;;;1.20;1.10;;;18.80;71.50;;;;;;5029200;28;20389;-65
2022/08/30 02:18:38;;;;;;;1.60;1.27;;;18.80;71.60;;;;;;5029095;28;20040;-65
2022/08/30 02:21:04;;;;;;;2.35;1.15;;;18.70;71.60;;;;;;5026383;28;20042;-65
2022/08/30 02:23:30;;;;;;;1.48;1.38;;;18.70;71.60;;;;;;5028611;28;20030;-64
2022/08/30 02:25:55;;;;;;;2.80;1.77;;;18.70;71.70;;;;;;5028775;28;20037;-65
2022/08/30 02:28:21;;;;;;;1.23;1.13;;;18.70;71.70;;;;;;5028991;28;20033;-65
2022/08/30 02:30:47;;;;;;;1.25;0.98;;;18.70;71.70;;;;;;5032881;28;20033;-66
2022/08/30 02:33:13;;;;;;;8.88;1.30;;;18.70;71.70;;;;;;5020678;28;20030;-65
2022/08/30 02:35:39;;;;;;;1.42;1.13;;;18.70;71.70;;;;;;5010791;28;20476;-65
2022/08/30 02:38:05;;;;;;;2.13;1.30;;;18.70;71.90;;;;;;5028181;28;20205;-65
2022/08/30 02:40:31;;;;;;;2.28;1.63;;;18.60;71.80;;;;;;5028577;28;20040;-65
2022/08/30 02:42:57;;;;;;;5.03;1.35;;;18.60;71.80;;;;;;5027309;28;20030;-65
2022/08/30 02:45:24;;;;;;;1.90;1.77;;;18.60;71.90;;;;;;5029081;28;20393;-71
2022/08/30 02:47:49;;;;;;;4.13;1.75;;;18.60;71.90;;;;;;5028600;28;20021;-71
2022/08/30 02:50:15;;;;;;;1.40;1.13;;;18.50;71.90;;;;;;5028647;28;20411;-65
2022/08/30 02:52:41;;;;;;;1.85;1.55;;;18.50;71.90;;;;;;5010830;28;20037;-71
2022/08/30 02:55:07;;;;;;;2.22;1.70;;;18.50;71.90;;;;;;5010555;28;20039;-71
2022/08/30 02:57:33;;;;;;;1.67;1.55;;;18.50;71.90;;;;;;5036960;28;20080;-71
2022/08/30 03:00:00;;;;;;;1.45;1.35;;;18.50;71.90;;;;;;5028620;28;20021;-71
2022/08/30 03:02:26;;;;;;;2.33;1.40;;;18.50;72.00;;;;;;5028226;28;20080;-71
2022/08/30 03:04:52;;;;;;;3.28;1.83;;;18.50;72.10;;;;;;5028154;28;20084;-71
2022/08/30 03:07:18;;;;;;;1.60;1.50;;;18.40;72.20;;;;;;5027873;28;20033;-71
2022/08/30 03:09:44;;;;;;;1.92;1.50;;;18.40;72.30;;;;;;5028700;28;20385;-72
2022/08/30 03:12:11;;;;;;;2.40;1.15;;;18.40;72.40;;;;;;5027966;28;20030;-72
2022/08/30 03:14:38;;;;;;;1.85;1.50;;;18.40;72.40;;;;;;5028530;28;20044;-71
2022/08/30 03:17:08;;;;;;;3.10;1.88;;;18.30;72.30;;;;;;5026498;28;20112;-71
2022/08/30 03:19:37;;;;;;;2.78;1.63;;;18.30;72.40;;;;;;5028442;28;20396;-71
2022/08/30 03:22:04;;;;;;;1.70;1.60;;;18.30;72.50;;;;;;5027691;28;20056;-71
2022/08/30 03:24:30;;;;;;;1.45;1.23;;;18.30;72.50;;;;;;5028540;28;20014;-71
2022/08/30 03:26:56;;;;;;;1.98;1.77;;;18.30;72.60;;;;;;5010119;28;20061;-71
2022/08/30 03:29:22;;;;;;;2.30;1.50;;;18.20;72.60;;;;;;5028325;28;20057;-71
2022/08/30 03:31:48;;;;;;;2.00;1.63;;;18.20;72.70;;;;;;5010383;28;20444;-71
2022/08/30 03:34:13;;;;;;;1.85;1.60;;;18.20;72.70;;;;;;5028535;28;20028;-71
2022/08/30 03:36:39;;;;;;;1.45;1.35;;;18.10;72.90;;;;;;5037125;28;20552;-71
2022/08/30 03:39:07;;;;;;;2.35;1.83;;;18.10;72.80;;;;;;5010130;28;20029;-72
2022/08/30 03:41:33;;;;;;;1.52;1.40;;;18.10;72.90;;;;;;5034215;28;20022;-71
2022/08/30 03:44:00;;;;;;;1.88;1.17;;;18.20;72.90;;;;;;5036941;28;20017;-71
2022/08/30 03:46:26;;;;;;;1.85;1.75;;;18.20;72.80;;;;;;5027656;28;20044;-71
2022/08/30 03:48:54;;;;;;;3.13;1.73;;;18.20;72.90;;;;;;5027814;28;20084;-71
2022/08/30 03:51:21;;;;;;;1.48;1.10;;;18.10;73.00;;;;;;5028045;28;20091;-71
2022/08/30 03:53:46;;;;;;;1.88;1.40;;;18.10;73.00;;;;;;5027446;28;20017;-71
2022/08/30 03:56:12;;;;;;;2.08;1.90;;;18.10;73.10;;;;;;5027660;28;20508;-71
2022/08/30 03:58:39;;;;;;;1.23;1.05;;;18.10;73.10;;;;;;5036520;28;20029;-71
2022/08/30 04:01:05;;;;;;;1.80;1.40;;;18.10;73.00;;;;;;5027800;28;20041;-72
2022/08/30 04:03:31;;;;;;;1.52;1.42;;;18.10;73.00;;;;;;5027811;28;20041;-71
2022/08/30 04:05:57;;;;;;;1.83;1.50;;;18.10;73.00;;;;;;5015303;28;20104;-71
2022/08/30 04:08:23;;;;;;;1.52;0.90;;;18.10;73.00;;;;;;5031803;28;20116;-71
2022/08/30 04:10:49;;;;;;;5.70;1.63;;;18.10;73.10;;;;;;5027557;28;20026;-71
2022/08/30 04:13:15;;;;;;;1.52;1.42;;;18.00;73.00;;;;;;5016179;28;20034;-71
2022/08/30 04:15:41;;;;;;;0.90;0.90;;;18.10;73.00;;;;;;5027892;28;20116;-71
2022/08/30 04:18:07;;;;;;;2.85;1.45;;;18.10;72.90;;;;;;5031199;28;20025;-71
2022/08/30 04:20:33;;;;;;;1.17;1.08;;;18.10;72.90;;;;;;5031533;28;20112;-71
2022/08/30 04:23:00;;;;;;;1.90;1.45;;;18.10;72.90;;;;;;5024423;28;20053;-71
2022/08/30 04:25:29;;;;;;;1.10;1.08;;;18.00;72.80;;;;;;5011417;28;20025;-71
2022/08/30 04:27:55;;;;;;;1.23;1.13;;;18.00;72.70;;;;;;5030472;28;20041;-65
2022/08/30 04:30:20;;;;;;;1.52;1.42;;;18.10;72.70;;;;;;4996586;28;20060;-65
2022/08/30 04:32:46;;;;;;;1.55;1.45;;;18.10;72.60;;;;;;5036679;28;20029;-65
2022/08/30 04:35:12;;;;;;;1.02;1.00;;;18.00;72.50;;;;;;5031151;28;20124;-65
2022/08/30 04:37:38;;;;;;;2.65;1.05;;;18.00;72.60;;;;;;5018807;28;20552;-65
2022/08/30 04:40:05;;;;;;;1.73;1.52;;;18.00;72.60;;;;;;5035464;28;20038;-65
2022/08/30 04:42:33;;;;;;;2.47;0.95;;;18.00;72.70;;;;;;5038037;28;20010;-65
2022/08/30 04:45:03;;;;;;;1.10;1.00;;;18.00;72.70;;;;;;5029289;28;20485;-65
2022/08/30 04:47:29;;;;;;;1.20;1.02;;;18.00;72.60;;;;;;5012904;28;20021;-65
2022/08/30 04:49:54;;;;;;;1.10;1.00;;;18.00;72.60;;;;;;5031092;28;20033;-65
2022/08/30 04:52:20;;;;;;;1.45;0.95;;;18.00;72.50;;;;;;4995928;28;20698;-65
2022/08/30 04:54:46;;;;;;;2.45;1.30;;;18.00;72.50;;;;;;5030946;28;20044;-65
2022/08/30 04:57:11;;;;;;;1.35;1.20;;;18.00;72.40;;;;;;5012244;28;20060;-65
2022/08/30 04:59:38;;;;;;;1.02;1.02;;;18.00;72.30;;;;;;5030704;28;20028;-65
2022/08/30 05:02:04;;;;;;;1.30;1.20;;;18.00;72.20;;;;;;5030561;28;20424;-65
2022/08/30 05:04:30;;;;;;;0.88;0.70;;;18.10;72.20;;;;;;5030847;28;20400;-65
2022/08/30 05:06:55;;;;;;;5.15;1.23;;;18.10;72.20;;;;;;5011888;28;20033;-65
2022/08/30 05:09:21;;;;;;;1.00;0.80;;;18.10;72.10;;;;;;5012751;28;20044;-65
2022/08/30 05:11:47;;;;;;;1.25;1.05;;;18.10;72.00;;;;;;5029831;28;20041;-65
2022/08/30 05:14:13;;;;;;;2.72;1.20;;;18.10;72.50;;;;;;5030616;28;20039;-66
2022/08/30 05:16:40;;;;;;;1.42;1.20;;;18.10;71.90;;;;;;5028674;28;20404;-65
2022/08/30 05:19:06;;;;;;;0.90;0.80;;;18.10;71.70;;;;;;5016653;28;20033;-65
2022/08/30 05:21:33;;;;;;;3.45;1.20;;;18.10;71.60;;;;;;5030262;28;20065;-65
2022/08/30 05:23:59;;;;;;;1.73;1.15;;;18.10;71.60;;;;;;5029840;28;20025;-65
2022/08/30 05:26:31;;;;;;;1.65;1.05;;;18.20;71.60;;;;;;5029180;28;20132;-65
2022/08/30 05:28:57;;;;;;;0.98;0.95;;;18.20;71.50;;;;;;5012278;28;20432;-65
2022/08/30 05:31:29;;;;;;;1.23;0.90;;;18.20;71.40;;;;;;5012590;28;20018;-65
2022/08/30 05:33:56;;;;;;;1.52;1.05;;;18.20;71.50;;;;;;5029966;28;20025;-65
2022/08/30 05:36:25;;;;;;;2.83;1.20;;;18.20;71.50;;;;;;5012109;28;20025;-65
2022/08/30 05:38:51;;;;;;;1.08;0.80;;;18.20;71.60;;;;;;5029383;28;20048;-65
2022/08/30 05:41:19;;;;;;;1.15;1.08;;;18.20;71.60;;;;;;5029652;28;20103;-66
2022/08/30 05:43:45;;;;;;;1.60;1.50;;;18.30;71.60;;;;;;4999787;28;20091;-65
2022/08/30 05:46:13;;;;;;;1.17;1.08;;;18.20;71.50;;;;;;5034638;28;20029;-65
2022/08/30 05:48:39;;;;;;;1.08;0.98;;;18.30;71.50;;;;;;5032465;28;20032;-71
2022/08/30 05:51:16;;;;;;;1.20;1.10;;;18.30;71.40;;;;;;5036191;28;20045;-72
2022/08/30 05:53:42;;;;;;;2.38;1.33;;;18.40;71.30;;;;;;5037936;28;20422;-71
2022/08/30 05:56:12;;;;;;;1.00;0.90;;;18.40;71.20;;;;;;5029310;28;20090;-71
2022/08/30 05:58:38;;;;;;;1.20;0.70;;;18.40;71.10;;;;;;5029490;28;20058;-71
2022/08/30 06:01:04;;;;;;;1.02;0.65;;;18.50;70.90;;;;;;5029647;28;20477;-71
2022/08/30 06:03:31;;;;;;;1.08;0.85;;;18.50;70.80;;;;;;5011880;28;20120;-72
2022/08/30 06:05:58;;;;;;;0.98;0.57;;;18.50;70.50;;;;;;5029011;28;20075;-71
2022/08/30 06:08:24;;;;;;;0.70;0.70;;;18.60;70.40;;;;;;5009489;28;20444;-72
2022/08/30 06:10:49;;;;;;;0.57;0.57;;;18.60;70.20;;;;;;5033030;28;20025;-71
2022/08/30 06:13:15;;;;;;;1.23;1.02;;;18.70;70.10;;;;;;5011839;28;20496;-71
2022/08/30 06:15:45;;;;;;;0.82;0.82;;;18.70;70.00;;;;;;5030297;28;20116;-71
2022/08/30 06:18:11;;;;;;;0.95;0.60;;;18.70;69.90;;;;;;5029374;28;20041;-71
2022/08/30 06:20:47;;;;;;;1.42;0.68;;;18.80;69.90;;;;;;5039103;28;20109;-71
2022/08/30 06:23:16;;;;;;;0.73;0.70;;;18.80;69.70;;;;;;5031072;28;20373;-71
2022/08/30 06:25:42;;;;;;;0.60;0.60;;;18.90;69.60;;;;;;5001361;28;20115;-65
2022/08/30 06:28:08;;;;;;;0.60;0.60;;;19.00;69.40;;;;;;5049182;28;20113;-65
2022/08/30 06:30:34;;;;;;;2.97;0.90;;;19.00;69.20;;;;;;5030788;28;20025;-65
2022/08/30 06:33:00;;;;;;;0.52;0.52;;;19.00;69.00;;;;;;5014679;28;20037;-65
2022/08/30 06:35:26;;;;;;;0.70;0.70;;;19.00;68.90;;;;;;5012552;28;20416;-65
2022/08/30 06:37:52;;;;;;;1.00;0.73;;;19.10;68.80;;;;;;5047455;28;20032;-65
2022/08/30 06:40:20;;;;;;;3.10;0.88;;;19.20;68.70;;;;;;5030379;28;20033;-65
2022/08/30 06:42:46;;;;;;;0.88;0.88;;;19.20;68.40;;;;;;5048766;28;20029;-65
2022/08/30 06:45:14;;;;;;;1.90;0.55;;;19.30;68.40;;;;;;5046935;28;20029;-65
2022/08/30 06:47:40;;;;;;;1.42;0.70;;;19.30;68.10;;;;;;5048614;28;20070;-65
2022/08/30 06:50:06;;;;;;;0.85;0.75;;;19.40;67.90;;;;;;5030498;28;20068;-65
2022/08/30 06:52:32;;;;;;;1.50;1.30;;;19.40;67.80;;;;;;5048424;28;20028;-65
2022/08/30 06:54:58;;;;;;;0.63;0.63;;;19.50;67.60;;;;;;5030535;28;20037;-65
2022/08/30 06:57:24;;;;;;;0.63;0.60;;;19.60;67.50;;;;;;5030069;28;20107;-65
2022/08/30 06:59:57;;;;;;;1.85;1.05;;;19.70;67.30;;;;;;5030685;28;20366;-65
2022/08/30 07:02:23;;;;;;;0.98;0.88;;;19.70;67.00;;;;;;5029006;28;20445;-65
2022/08/30 07:04:49;;;;;;;0.47;0.47;;;19.80;66.90;;;;;;5030504;28;20059;-65
2022/08/30 07:07:15;;;;;;;0.45;0.45;;;19.80;66.70;;;;;;5047937;28;20053;-65
2022/08/30 07:09:42;;;;;;;0.60;0.50;;;19.90;66.60;;;;;;5014482;28;20059;-66
2022/08/30 07:12:09;;;;;;;0.80;0.80;;;19.90;66.20;;;;;;5047572;28;20039;-65
2022/08/30 07:14:35;;;;;;;0.73;0.63;;;20.00;66.20;;;;;;5048521;28;20037;-65
2022/08/30 07:17:01;;;;;;;3.88;0.70;;;20.00;66.00;;;;;;5029748;28;20476;-71
2022/08/30 07:19:26;;;;;;;0.60;0.52;;;20.10;65.90;;;;;;5030236;28;20075;-71
2022/08/30 07:21:52;;;;;;;0.82;0.82;;;20.20;65.60;;;;;;5047504;28;20041;-71
2022/08/30 07:24:19;;;;;;;1.00;0.80;;;20.30;65.40;;;;;;5048447;28;20030;-71
2022/08/30 07:26:48;;;;;;;0.50;0.50;;;20.20;65.30;;;;;;5029945;28;20041;-71
2022/08/30 07:29:15;;;;;;;3.10;0.75;;;20.30;65.20;;;;;;5052568;28;20040;-71
2022/08/30 07:31:41;;;;;;;2.90;0.75;;;20.40;64.90;;;;;;5048175;28;20075;-72
2022/08/30 07:34:08;;;;;;;0.88;0.70;;;20.40;64.60;;;;;;5047204;28;20292;-71
2022/08/30 07:36:36;;;;;;;1.60;0.95;;;20.50;64.40;;;;;;5047939;28;20037;-71
2022/08/30 07:39:03;;;;;;;0.70;0.70;;;20.50;64.20;;;;;;5047653;28;20024;-72
2022/08/30 07:41:37;;;;;;;0.65;0.50;;;20.60;63.90;;;;;;5047478;28;20025;-72
2022/08/30 07:44:04;;;;;;;0.57;0.30;;;20.70;63.50;;;;;;5050666;28;20361;-72
2022/08/30 07:46:30;;;;;;;0.52;0.40;;;20.70;63.30;;;;;;5047911;28;20025;-72
2022/08/30 07:48:58;;;;;;;0.47;0.38;;;20.80;63.20;;;;;;5030238;28;20036;-72
2022/08/30 07:51:26;;;;;;;0.45;0.45;;;21.00;62.90;;;;;;5051676;28;20017;-71
2022/08/30 07:53:52;;;;;;;0.47;0.47;;;21.10;62.30;;;;;;5051979;28;20029;-72
2022/08/30 07:56:19;;;;;;;0.52;0.52;;;21.10;61.90;;;;;;5033389;28;20515;-72
2022/08/30 07:58:45;;;;;;;0.40;0.40;;;21.20;61.70;;;;;;5033810;28;20024;-71
2022/08/30 08:01:12;;;;;;;1.65;0.68;;;21.20;61.60;;;;;;5033694;28;20044;-71
2022/08/30 08:03:39;;;;;;;1.67;0.68;;;21.30;61.40;;;;;;5033732;28;20037;-71
2022/08/30 08:06:07;;;;;;;0.85;0.38;;;21.40;61.20;;;;;;5055300;28;20090;-71
2022/08/30 08:08:33;;;;;;;0.57;0.57;;;21.50;60.90;;;;;;5019392;28;20042;-71
2022/08/30 08:11:13;;;;;;;0.73;0.73;;;21.60;60.40;;;;;;5050994;28;20025;-72
2022/08/30 08:13:39;;;;;;;0.57;0.50;;;21.70;60.60;;;;;;5051497;28;20460;-72
2022/08/30 08:16:05;;;;;;;0.30;0.30;;;21.70;59.90;;;;;;5059958;28;20029;-72
2022/08/30 08:18:31;;;;;;;1.10;0.70;;;21.80;59.40;;;;;;5033593;28;20045;-71
2022/08/30 08:20:58;;;;;;;0.57;0.45;;;21.90;59.20;;;;;;5027934;28;20025;-72
2022/08/30 08:23:24;;;;;;;0.30;0.30;;;21.90;59.00;;;;;;5022167;28;20040;-72
2022/08/30 08:25:50;;;;;;;0.50;0.50;;;22.00;58.10;;;;;;4998069;28;20485;-72
2022/08/30 08:28:15;;;;;;;0.80;0.40;;;22.10;57.90;;;;;;5019860;28;20145;-72
2022/08/30 08:30:41;;;;;;;0.50;0.50;;;22.20;57.70;;;;;;4993007;28;20064;-72
2022/08/30 08:33:08;;;;;;;1.20;0.40;;;22.30;57.50;;;;;;5011109;28;20041;-72
2022/08/30 08:35:34;;;;;;;0.40;0.40;;;22.40;57.40;;;;;;5010893;28;20362;-72
2022/08/30 08:37:59;;;;;;;0.40;0.40;;;22.50;56.90;;;;;;5010073;28;20037;-72
2022/08/30 08:40:26;;;;;;;0.77;0.68;;;22.60;56.40;;;;;;4992534;28;20034;-72
2022/08/30 08:43:00;;;;;;;0.50;0.50;;;22.70;56.30;;;;;;5011083;28;20077;-72
2022/08/30 08:45:46;;;;;;;0.93;0.60;;;22.80;56.20;;;;;;5011414;28;20117;-72
2022/08/30 08:48:29;;;;;;;0.55;0.45;;;23.00;55.50;;;;;;5011024;28;20029;-72
2022/08/30 08:53:44;;;;;;;1.50;0.88;;;23.00;54.40;;;;;;5008385;28;20128;-72
2022/08/30 08:56:13;;;;;;;0.65;0.35;;;23.00;54.20;;;;;;5010585;28;20453;-72
2022/08/30 08:58:48;;;;;;;0.95;0.77;;;23.10;54.40;;;;;;4997385;28;20030;-72
2022/08/30 09:01:18;;;;;;;0.63;0.40;;;23.10;53.80;;;;;;5004286;28;20101;-72
2022/08/30 09:03:45;;;;;;;2.30;0.77;;;23.20;53.50;;;;;;5004722;28;20122;-72
2022/08/30 09:06:47;;;;;;;0.60;0.60;;;23.20;53.50;;;;;;5008779;28;20576;-72
2022/08/30 09:09:13;;;;;;;0.60;0.55;;;23.40;52.60;;;;;;5008221;28;20468;-72
2022/08/30 09:11:40;;;;;;;4.57;0.60;;;23.50;52.50;;;;;;4990962;28;20018;-72
2022/08/30 09:14:11;;;;;;;0.30;0.30;;;23.60;52.00;;;;;;5008334;28;20133;-72
2022/08/30 09:17:00;;;;;;;0.50;0.50;;;23.70;51.80;;;;;;5001483;28;20026;-72
2022/08/30 09:19:29;;;;;;;0.65;0.40;;;23.80;50.80;;;;;;4985497;28;20173;-72
2022/08/30 09:22:21;;;;;;;1.17;0.85;;;23.80;50.80;;;;;;5012840;28;20054;-72
2022/08/30 09:24:53;;;;;;;1.00;0.47;;;23.90;51.10;;;;;;5013546;28;20044;-72
2022/08/30 09:27:32;;;;;;;0.40;0.40;;;24.00;51.20;;;;;;5030323;28;20211;-72
2022/08/30 09:29:59;;;;;;;4.40;0.85;;;24.20;51.20;;;;;;5010232;28;20026;-72
2022/08/30 09:32:27;;;;;;;0.30;0.30;;;24.40;51.10;;;;;;5000900;28;20341;-72
2022/08/30 09:34:53;;;;;;;0.68;0.63;;;24.40;50.70;;;;;;5022412;28;20029;-72
2022/08/30 09:37:26;;;;;;;0.40;0.40;;;24.40;50.00;;;;;;5003333;28;20658;-72
2022/08/30 09:39:52;;;;;;;0.40;0.40;;;24.50;50.10;;;;;;5028218;28;20029;-72
2022/08/30 09:42:22;;;;;;;0.60;0.50;;;24.50;49.80;;;;;;5026187;28;20400;-72
2022/08/30 09:44:48;;;;;;;1.02;0.50;;;24.50;49.90;;;;;;5011572;28;20026;-72
2022/08/30 09:47:28;;;;;;;0.30;0.30;;;24.50;49.40;;;;;;5027558;28;20029;-72
2022/08/30 09:50:11;;;;;;;0.45;0.45;;;24.50;49.50;;;;;;5027230;28;20091;-72
2022/08/30 09:52:51;;;;;;;0.70;0.47;;;24.60;49.30;;;;;;5025830;28;20065;-66
2022/08/30 09:55:39;;;;;;;1.88;0.50;;;24.70;48.90;;;;;;5024498;28;20377;-65
2022/08/30 09:58:29;;;;;;;0.40;0.40;;;24.70;48.70;;;;;;5005206;28;20069;-72
2022/08/30 10:01:13;;;;;;;0.90;0.65;;;24.80;48.50;;;;;;5025206;28;20029;-72
2022/08/30 10:03:47;;;;;;;0.40;0.40;;;24.80;48.20;;;;;;5027060;28;20021;-72
2022/08/30 10:06:27;;;;;;;0.30;0.30;;;24.90;48.20;;;;;;5026710;28;20507;-72
2022/08/30 10:09:17;;;;;;;0.30;0.30;;;25.10;48.10;;;;;;5023526;28;20029;-72
2022/08/30 10:12:10;;;;;;;0.82;0.50;;;25.40;47.60;;;;;;5026063;28;20033;-72
2022/08/30 10:14:36;;;;;;;0.60;0.60;;;25.50;46.60;;;;;;5026410;28;20109;-72
2022/08/30 10:17:12;;;;;;;1.50;0.40;;;25.50;46.10;;;;;;5025536;28;20108;-72
2022/08/30 10:20:01;;;;;;;0.40;0.40;;;25.60;46.30;;;;;;5008326;28;20025;-72
2022/08/30 10:23:14;;;;;;;0.40;0.40;;;25.70;46.00;;;;;;5020560;28;20056;-72
2022/08/30 10:25:55;;;;;;;0.40;0.40;;;25.90;45.90;;;;;;4893283;29;20028;-72
2022/08/30 10:28:35;;;;;;;2.47;0.70;;;26.10;45.00;;;;;;4907666;29;20036;-72
2022/08/30 10:31:08;;;;;;;1.27;0.93;;;26.20;45.40;;;;;;4982664;28;20132;-72
2022/08/30 10:33:41;;;;;;;0.60;0.60;;;26.40;45.60;;;;;;5023909;28;20027;-72
2022/08/30 10:36:12;;;;;;;2.20;0.57;;;26.60;45.30;;;;;;5024500;28;20037;-72
2022/08/30 10:38:47;;;;;;;0.50;0.50;;;26.70;44.70;;;;;;5025126;28;20503;-72
2022/08/30 10:41:28;;;;;;;1.08;0.55;;;26.80;44.50;;;;;;5026234;28;20030;-73
2022/08/30 10:44:06;;;;;;;0.47;0.47;;;27.00;44.30;;;;;;5027138;28;20026;-72
2022/08/30 10:46:46;;;;;;;0.60;0.60;;;27.10;44.10;;;;;;5023193;28;20465;-72
2022/08/30 10:49:18;;;;;;;0.30;0.30;;;27.20;42.70;;;;;;5026078;28;20083;-72
2022/08/30 10:51:52;;;;;;;0.40;0.40;;;27.30;42.90;;;;;;5028337;28;20031;-72
2022/08/30 10:54:33;;;;;;;0.73;0.73;;;27.30;42.80;;;;;;5023007;28;20400;-72
2022/08/30 10:56:59;;;;;;;2.50;0.40;;;27.40;42.60;;;;;;5027913;28;20056;-72
2022/08/30 10:59:25;;;;;;;0.68;0.68;;;27.50;42.20;;;;;;5012605;28;20595;-72
2022/08/30 11:01:57;;;;;;;0.60;0.60;;;27.60;42.00;;;;;;5007333;28;20033;-72
2022/08/30 11:04:41;;;;;;;0.47;0.47;;;27.60;41.90;;;;;;5025152;28;20057;-72
2022/08/30 11:07:15;;;;;;;0.50;0.50;;;27.70;42.00;;;;;;5026311;28;20559;-72
2022/08/30 11:09:56;;;;;;;0.60;0.60;;;27.80;41.50;;;;;;5023583;28;20025;-73
2022/08/30 11:12:51;;;;;;;0.40;0.40;;;27.70;41.50;;;;;;5004006;28;20086;-72
2022/08/30 11:15:31;;;;;;;1.10;0.38;;;27.80;41.20;;;;;;4976887;28;20096;-73
2022/08/30 11:18:08;;;;;;;0.40;0.40;;;28.00;41.00;;;;;;5006400;28;20026;-73
2022/08/30 11:20:50;;;;;;;0.75;0.75;;;28.20;41.10;;;;;;5024217;28;20450;-72
2022/08/30 11:23:35;;;;;;;0.65;0.65;;;28.40;41.30;;;;;;5022179;28;20025;-72
2022/08/30 11:26:09;;;;;;;0.70;0.70;;;28.50;41.00;;;;;;5024353;28;20022;-73
2022/08/30 11:28:34;;;;;;;0.52;0.50;;;28.70;41.00;;;;;;5026989;28;20117;-72
2022/08/30 11:31:07;;;;;;;0.57;0.57;;;28.90;41.00;;;;;;5024062;28;20116;-72
2022/08/30 11:33:49;;;;;;;0.50;0.50;;;29.00;40.40;;;;;;5022083;28;20095;-72
2022/08/30 11:36:27;;;;;;;;;;;29.00;39.90;;;;;;5022500;28;20033;-72
2022/08/30 11:38:52;;;;;;;0.50;0.50;;;29.00;40.00;;;;;;5023141;28;19914;-72
2022/08/30 11:41:42;;;;;;;1.17;0.50;;;29.10;40.20;;;;;;5008552;28;20338;-72
2022/08/30 11:44:18;;;;;;;0.73;0.60;;;29.30;40.10;;;;;;5027212;28;20029;-72
2022/08/30 11:46:43;;;;;;;0.73;0.43;;;29.40;39.70;;;;;;5024747;28;20469;-66
2022/08/30 11:49:15;;;;;;;1.80;0.38;;;29.60;38.80;;;;;;4990987;28;20026;-72
2022/08/30 11:51:49;;;;;;;0.50;0.50;;;29.60;38.60;;;;;;5013782;28;20064;-72
2022/08/30 11:54:34;;;;;;;0.80;0.55;;;29.70;38.50;;;;;;5029390;28;20088;-66
2022/08/30 11:56:59;;;;;;;0.45;0.45;;;29.70;38.10;;;;;;5026720;28;20033;-66
2022/08/30 11:59:41;;;;;;;12.65;0.93;;;29.70;38.30;;;;;;5025539;28;20034;-67
2022/08/30 12:02:07;;;;;;;0.30;0.30;;;29.70;38.30;;;;;;5024395;28;20133;-67
2022/08/30 12:04:44;;;;;;;0.60;0.50;;;29.90;38.30;;;;;;5004635;28;20455;-67
2022/08/30 12:07:10;;;;;;;0.40;0.40;;;29.90;38.20;;;;;;5011552;28;20123;-66
2022/08/30 12:09:36;;;;;;;0.40;0.40;;;30.00;38.10;;;;;;5005660;28;20041;-66
2022/08/30 12:12:37;;;;;;;0.38;0.38;;;30.20;37.80;;;;;;5024427;28;20029;-66
2022/08/30 12:15:03;;;;;;;0.50;0.50;;;30.30;37.50;;;;;;5019170;28;20490;-66
2022/08/30 12:20:45;;;;;;;0.65;0.60;;;30.70;37.60;;;;;;5022958;28;20056;-66
2022/08/30 12:23:30;;;;;;;0.57;0.50;;;30.70;36.70;;;;;;5001243;28;20042;-67
2022/08/30 12:26:17;;;;;;;0.73;0.45;;;30.70;36.60;;;;;;4999798;28;20064;-66
2022/08/30 12:28:45;;;;;;;0.40;0.40;;;30.70;36.40;;;;;;5003641;28;20066;-67
2022/08/30 12:31:24;;;;;;;1.00;0.80;;;30.70;36.20;;;;;;5005240;28;20493;-66
2022/08/30 12:33:58;;;;;;;0.77;0.68;;;30.70;36.00;;;;;;5004451;28;20080;-67
2022/08/30 12:36:47;;;;;;;0.50;0.50;;;30.80;36.50;;;;;;5004847;28;20032;-67
2022/08/30 12:39:20;;;;;;;0.63;0.50;;;30.60;36.20;;;;;;5005249;28;20056;-66
2022/08/30 12:41:46;;;;;;;0.40;0.40;;;30.60;36.30;;;;;;5006595;28;20022;-67
2022/08/30 12:44:15;;;;;;;0.43;0.40;;;30.60;36.50;;;;;;5010306;28;20556;-66
2022/08/30 12:46:44;;;;;;;0.98;0.43;;;30.60;36.20;;;;;;5007778;28;20025;-66
2022/08/30 12:49:13;;;;;;;1.42;0.57;;;30.60;36.40;;;;;;4991121;28;20452;-66
2022/08/30 12:51:41;;;;;;;0.40;0.40;;;30.60;35.90;;;;;;5007544;28;20517;-66
2022/08/30 12:54:27;;;;;;;0.30;0.30;;;30.70;35.80;;;;;;5003010;28;20066;-66
2022/08/30 12:56:58;;;;;;;0.30;0.30;;;30.90;35.80;;;;;;5005952;28;20017;-67
2022/08/30 12:59:47;;;;;;;0.47;0.43;;;31.00;35.40;;;;;;5007296;28;20018;-67
2022/08/30 13:02:17;;;;;;;1.40;0.70;;;31.00;35.30;;;;;;5007710;28;20104;-66
2022/08/30 13:04:46;;;;;;;2.33;0.50;;;31.20;35.10;;;;;;5006814;28;20036;-66
2022/08/30 13:07:33;;;;;;;0.38;0.38;;;31.30;34.60;;;;;;5006753;28;20078;-66
2022/08/30 13:10:03;;;;;;;0.45;0.45;;;31.40;34.60;;;;;;4997247;28;20030;-67